Time;durP1;ratioP1;P1;durP2;ratioP2;P2;SDS_P1;SDS_P2;PMS_P1;PMS_P2;Temp;Humidity;BMP_temperature;BMP_pressure;BME280_temperature;BME280_humidity;BME280_pressure;Samples;Min_cycle;Max_cycle;Signal;HPM_P1;HPM_P2
2023/05/25 00:01:17;;;;;;;;;;;14.50;58.90;;;10.02;87.68;95623.97;5004127;28;20435;-48
2023/05/25 00:03:44;;;;;;;;;;;14.50;58.90;;;9.99;88.25;95632.47;5005946;28;19913;-48
2023/05/25 00:06:10;;;;;;;;;;;14.50;59.50;;;9.98;87.66;95623.72;5002807;28;19909;-51
2023/05/25 00:08:39;;;;;;;;;;;14.40;58.80;;;10.00;87.15;95618.09;5013736;28;19958;-51
2023/05/25 00:11:05;;;;;;;;;;;14.40;58.80;;;10.00;86.70;95623.44;5011152;28;20360;-49
2023/05/25 00:13:31;;;;;;;;;;;14.50;58.90;;;10.01;87.08;95622.38;5013634;28;19989;-52
2023/05/25 00:15:57;;;;;;;;;;;14.50;58.80;;;9.97;85.79;95622.13;5012602;28;19913;-52
2023/05/25 00:18:23;;;;;;;;;;;14.50;58.80;;;10.00;84.87;95616.28;5013621;28;20302;-48
2023/05/25 00:20:57;;;;;;;;;;;14.50;58.80;;;9.99;85.07;95619.19;5013860;28;20004;-50
2023/05/25 00:23:22;;;;;;;;;;;14.50;58.70;;;9.96;83.85;95616.00;5012877;28;20273;-48
2023/05/25 00:25:48;;;;;;;;;;;14.50;58.70;;;9.98;83.55;95617.59;5013546;28;19947;-50
2023/05/25 00:28:14;;;;;;;;;;;14.50;58.60;;;9.92;82.72;95606.91;5008983;28;20000;-50
2023/05/25 00:30:40;;;;;;;;;;;14.40;58.50;;;9.92;83.06;95601.59;5003454;28;19959;-49
2023/05/25 00:33:07;;;;;;;;;;;14.50;58.50;;;9.93;82.44;95613.03;5012157;28;19909;-48
2023/05/25 00:35:33;;;;;;;;;;;14.40;58.40;;;9.92;82.40;95606.91;5003065;28;19917;-48
2023/05/25 00:37:58;;;;;;;;;;;14.40;58.40;;;9.87;80.76;95598.09;5010077;28;19909;-48
2023/05/25 00:40:24;;;;;;;;;;;14.40;58.30;;;9.91;79.72;95602.66;5012274;28;19909;-48
2023/05/25 00:42:52;;;;;;;;;;;14.40;58.20;;;9.94;79.34;95604.00;5012644;28;19924;-48
2023/05/25 00:45:17;;;;;;;;;;;14.40;58.20;;;10.00;79.84;95610.13;5011849;28;20210;-49
2023/05/25 00:47:44;;;;;;;;;;;14.40;58.10;;;9.96;78.51;95602.69;5012983;28;19909;-48
2023/05/25 00:50:16;;;;;;;;;;;14.40;58.10;;;10.01;78.33;95606.44;5027979;28;19909;-49
2023/05/25 00:52:42;;;;;;;;;;;14.40;58.00;;;9.95;77.15;95609.06;5006608;28;19913;-49
2023/05/25 00:55:10;;;;;;;;;;;14.40;57.90;;;9.94;75.96;95607.47;5020295;28;20330;-48
2023/05/25 00:57:38;;;;;;;;;;;14.40;57.90;;;9.90;75.80;95595.75;5022400;28;19909;-49
2023/05/25 01:00:10;;;;;;;;;;;14.40;57.70;;;9.98;76.53;95601.63;5004774;28;19913;-50
2023/05/25 01:02:41;;;;;;;;;;;14.40;57.70;;;9.92;76.56;95601.59;5012650;28;19916;-48
2023/05/25 01:05:09;;;;;;;;;;;14.40;57.60;;;9.91;78.25;95596.53;5011032;28;19913;-52
2023/05/25 01:07:36;;;;;;;;;;;14.40;57.50;;;9.90;78.88;95600.25;5027947;28;20364;-48
2023/05/25 01:10:08;;;;;;;;;;;14.40;57.50;;;9.74;80.12;95594.03;5010963;28;19952;-49
2023/05/25 01:12:37;;;;;;;;;;;14.40;57.40;;;9.69;82.70;95581.53;5027641;28;19958;-51
2023/05/25 01:15:05;;;;;;;;;;;14.30;57.40;;;9.55;83.47;95575.06;5026825;28;19956;-48
2023/05/25 01:17:31;;;;;;;;;;;14.30;57.40;;;9.39;85.52;95589.34;5012208;28;19917;-48
2023/05/25 01:19:58;;;;;;;;;;;14.20;57.40;;;9.32;86.40;95583.44;5027474;28;19921;-48
2023/05/25 01:22:44;;;;;;;;;;;14.10;57.40;;;9.27;88.19;95586.84;5001972;28;20398;-48
2023/05/25 01:25:39;;;;;;;;;;;14.00;57.40;;;9.20;89.65;95578.31;5011491;28;20333;-48
2023/05/25 01:28:16;;;;;;;;;;;13.90;57.50;;;9.09;90.57;95584.59;5011487;28;19938;-48
2023/05/25 01:30:48;;;;;;;;;;;13.80;57.60;;;8.89;92.08;95580.75;5026702;28;19933;-50
2023/05/25 01:33:17;;;;;;;;;;;13.70;57.80;;;8.86;91.99;95589.22;5011043;28;20431;-48
2023/05/25 01:35:45;;;;;;;;;;;13.70;57.90;;;8.89;92.61;95582.59;4998315;28;19916;-51
2023/05/25 01:38:12;;;;;;;;;;;13.60;57.90;;;8.82;92.72;95589.97;4997755;28;19909;-53
2023/05/25 01:40:38;;;;;;;;;;;13.60;58.00;;;8.89;94.17;95593.22;5026196;28;19956;-52
2023/05/25 01:43:04;;;;;;;;;;;13.50;58.10;;;8.85;94.22;95594.78;5000019;28;19967;-53
2023/05/25 01:45:31;;;;;;;;;;;13.50;58.20;;;8.80;94.61;95598.19;5011055;28;19913;-55
2023/05/25 01:48:29;;;;;;;;;;;13.40;58.30;;;8.75;96.64;95603.47;5013983;28;20359;-48
2023/05/25 01:51:38;;;;;;;;;;;13.40;58.40;;;8.69;96.18;95605.28;5010763;28;19909;-50
2023/05/25 01:54:31;;;;;;;;;;;13.30;58.50;;;8.63;95.81;95606.28;4981123;28;20008;-48
2023/05/25 01:57:00;;;;;;;;;;;13.30;58.60;;;8.64;96.84;95613.19;4997554;28;19909;-50
2023/05/25 01:59:30;;;;;;;;;;;13.20;58.60;;;8.66;98.48;95610.28;5005283;28;20055;-53
2023/05/25 02:01:58;;;;;;;;;;;13.20;58.70;;;8.61;98.23;95611.03;5006022;28;19917;-51
2023/05/25 02:04:26;;;;;;;;;;;13.20;58.80;;;8.57;98.36;95616.03;4996943;28;19917;-50
2023/05/25 02:06:51;;;;;;;;;;;13.20;58.80;;;8.58;99.29;95616.84;5006694;28;19921;-53
2023/05/25 02:09:17;;;;;;;;;;;13.10;58.90;;;8.52;98.37;95608.06;5011188;28;20326;-49
2023/05/25 02:11:43;;;;;;;;;;;13.10;58.90;;;8.46;98.29;95603.75;4998785;28;19959;-50
2023/05/25 02:14:09;;;;;;;;;;;13.10;59.60;;;8.45;98.12;95603.97;5011894;28;19909;-50
2023/05/25 02:16:35;;;;;;;;;;;13.10;59.10;;;8.47;98.89;95604.53;5009881;28;20279;-47
2023/05/25 02:19:01;;;;;;;;;;;13.10;59.20;;;8.45;98.26;95599.47;4999529;28;19909;-48
2023/05/25 02:21:27;;;;;;;;;;;13.00;59.20;;;8.43;98.26;95603.41;5011851;28;20390;-48
2023/05/25 02:23:53;;;;;;;;;;;13.00;59.20;;;8.41;97.72;95602.88;5015715;28;20011;-50
2023/05/25 02:26:19;;;;;;;;;;;13.00;59.30;;;8.42;98.67;95599.16;5015375;28;19923;-47
2023/05/25 02:28:45;;;;;;;;;;;13.00;60.00;;;8.45;99.18;95593.34;5014223;28;20286;-47
2023/05/25 02:31:11;;;;;;;;;;;12.90;59.40;;;8.40;98.74;95585.34;5015491;28;19909;-47
2023/05/25 02:33:36;;;;;;;;;;;12.90;59.40;;;8.35;100.00;95594.03;5014639;28;20314;-50
2023/05/25 02:36:04;;;;;;;;;;;12.90;59.40;;;8.35;100.00;95591.38;5002455;28;19909;-47
2023/05/25 02:38:30;;;;;;;;;;;12.90;59.50;;;8.29;100.00;95593.16;5015535;28;19909;-48
2023/05/25 02:40:55;;;;;;;;;;;12.80;59.50;;;8.27;100.00;95592.63;5009413;28;19909;-48
2023/05/25 02:43:21;;;;;;;;;;;12.90;59.60;;;8.23;100.00;95599.47;5007287;28;19943;-47
2023/05/25 02:45:47;;;;;;;;;;;12.80;59.60;;;8.22;100.00;95592.56;5011143;28;19909;-50
2023/05/25 02:48:13;;;;;;;;;;;12.80;59.70;;;8.20;100.00;95591.22;5012125;28;19924;-48
2023/05/25 02:50:38;;;;;;;;;;;12.80;59.70;;;8.17;100.00;95597.00;5014435;28;20437;-47
2023/05/25 02:53:04;;;;;;;;;;;12.80;59.90;;;8.20;100.00;95592.00;5013271;28;19909;-49
2023/05/25 02:55:30;;;;;;;;;;;12.70;59.80;;;8.11;100.00;95593.50;5014197;28;20367;-48
2023/05/25 02:57:57;;;;;;;;;;;12.70;59.90;;;8.17;100.00;95597.81;5013353;28;20421;-47
2023/05/25 03:00:23;;;;;;;;;;;12.70;60.00;;;8.18;100.00;95585.34;5003676;28;19913;-49
2023/05/25 03:02:48;;;;;;;;;;;12.70;60.00;;;8.16;100.00;95585.59;5012482;28;19909;-47
2023/05/25 03:05:16;;;;;;;;;;;12.70;60.10;;;8.13;100.00;95574.69;5002573;28;19909;-49
2023/05/25 03:07:42;;;;;;;;;;;12.60;60.10;;;8.05;100.00;95578.56;5012790;28;19978;-47
2023/05/25 03:10:10;;;;;;;;;;;12.60;60.20;;;8.07;100.00;95579.94;5013267;28;19917;-47
2023/05/25 03:12:35;;;;;;;;;;;12.60;60.30;;;8.09;100.00;95571.75;5009159;28;19910;-48
2023/05/25 03:15:01;;;;;;;;;;;12.60;60.40;;;8.04;100.00;95569.81;5004943;28;20027;-48
2023/05/25 03:17:27;;;;;;;;;;;12.60;60.40;;;8.00;100.00;95576.66;4995895;28;19967;-47
2023/05/25 03:19:53;;;;;;;;;;;12.60;60.50;;;7.97;100.00;95579.81;4996456;28;19910;-48
2023/05/25 03:22:18;;;;;;;;;;;12.50;60.60;;;7.96;100.00;95580.88;5001807;28;19910;-48
2023/05/25 03:24:45;;;;;;;;;;;12.50;60.60;;;7.99;100.00;95577.72;4994446;28;19956;-47
2023/05/25 03:27:11;;;;;;;;;;;12.50;60.70;;;7.99;100.00;95585.69;5010852;28;19909;-47
2023/05/25 03:29:36;;;;;;;;;;;12.50;60.80;;;8.00;100.00;95592.59;5001425;28;19920;-47
2023/05/25 03:32:02;;;;;;;;;;;12.50;60.80;;;7.99;100.00;95595.47;4998721;28;19908;-49
2023/05/25 03:34:28;;;;;;;;;;;12.50;60.90;;;8.01;100.00;95601.34;5001160;28;19916;-48
2023/05/25 03:36:55;;;;;;;;;;;12.50;61.00;;;8.04;100.00;95598.19;4998540;28;19909;-50
2023/05/25 03:39:21;;;;;;;;;;;12.60;61.00;;;8.08;100.00;95599.28;5027718;28;19948;-48
2023/05/25 03:41:47;;;;;;;;;;;12.60;61.10;;;8.04;100.00;95606.16;5009087;28;20011;-50
2023/05/25 03:44:13;;;;;;;;;;;12.50;61.00;;;8.08;100.00;95609.91;5013631;28;19913;-50
2023/05/25 03:46:39;;;;;;;;;;;12.50;61.00;;;8.09;100.00;95611.53;5011297;28;19916;-47
2023/05/25 03:49:05;;;;;;;;;;;12.60;61.20;;;8.15;100.00;95607.06;5013702;28;19932;-48
2023/05/25 03:51:31;;;;;;;;;;;12.60;61.10;;;8.19;100.00;95608.97;5010236;28;19931;-48
2023/05/25 03:53:56;;;;;;;;;;;12.70;61.20;;;8.25;100.00;95609.84;5013392;28;19909;-48
2023/05/25 03:56:22;;;;;;;;;;;12.70;61.10;;;8.19;100.00;95614.28;5000089;28;19971;-52
2023/05/25 03:58:48;;;;;;;;;;;12.70;61.20;;;8.24;100.00;95614.34;4999814;28;19936;-48
2023/05/25 04:01:15;;;;;;;;;;;12.70;61.10;;;8.26;100.00;95616.75;4993923;28;19936;-48
2023/05/25 04:03:41;;;;;;;;;;;12.80;61.20;;;8.28;100.00;95618.13;4998263;28;19913;-48
2023/05/25 04:06:07;;;;;;;;;;;12.80;61.10;;;8.35;100.00;95625.88;4999819;28;19909;-47
2023/05/25 04:08:33;;;;;;;;;;;12.90;61.10;;;8.40;100.00;95615.34;5028732;28;20266;-48
2023/05/25 04:10:58;;;;;;;;;;;12.90;61.00;;;8.45;100.00;95617.25;5008086;28;19938;-48
2023/05/25 04:13:25;;;;;;;;;;;12.90;61.00;;;8.41;100.00;95611.63;4999974;28;19992;-48
2023/05/25 04:15:51;;;;;;;;;;;13.00;61.00;;;8.46;100.00;95613.53;4999380;28;19951;-50
2023/05/25 04:18:17;;;;;;;;;;;13.00;61.10;;;8.55;100.00;95617.34;5013280;28;19933;-49
2023/05/25 04:20:45;;;;;;;;;;;13.00;61.00;;;8.55;100.00;95620.81;5006406;28;20331;-48
2023/05/25 04:23:11;;;;;;;;;;;13.10;61.00;;;8.59;100.00;95618.47;4997120;28;19947;-48
2023/05/25 04:25:37;;;;;;;;;;;13.10;60.90;;;8.60;100.00;95613.94;4993131;28;19914;-51
2023/05/25 04:28:02;;;;;;;;;;;13.10;60.90;;;8.60;100.00;95616.59;5005536;28;19916;-49
2023/05/25 04:30:30;;;;;;;;;;;13.20;60.90;;;8.61;99.48;95604.94;5012781;28;20151;-50
2023/05/25 04:32:56;;;;;;;;;;;13.30;61.70;;;8.62;99.71;95610.00;5012432;28;19917;-52
2023/05/25 04:35:22;;;;;;;;;;;13.30;60.90;;;8.71;99.54;95605.84;5011131;28;20008;-53
2023/05/25 04:37:48;;;;;;;;;;;13.40;60.90;;;8.68;97.80;95602.84;5012989;28;19999;-48
2023/05/25 04:40:13;;;;;;;;;;;13.40;60.80;;;8.77;99.28;95612.81;5002281;28;19913;-48
2023/05/25 04:42:40;;;;;;;;;;;13.50;60.70;;;8.80;98.22;95614.94;4998905;28;19917;-48
2023/05/25 04:45:09;;;;;;;;;;;13.50;60.70;;;8.86;97.23;95614.97;4998197;28;19917;-50
2023/05/25 04:47:36;;;;;;;;;;;13.50;60.60;;;8.91;96.65;95615.03;5010488;28;19931;-51
2023/05/25 04:50:03;;;;;;;;;;;13.60;60.50;;;9.00;97.89;95619.63;4999203;28;20004;-49
2023/05/25 04:52:29;;;;;;;;;;;13.70;60.50;;;9.09;97.21;95624.47;4999694;28;19915;-48
2023/05/25 04:54:55;;;;;;;;;;;13.80;60.50;;;9.13;95.90;95617.59;5011118;28;19913;-48
2023/05/25 04:57:21;;;;;;;;;;;13.80;60.40;;;9.22;97.06;95630.16;5011303;28;19931;-49
2023/05/25 04:59:46;;;;;;;;;;;13.90;60.40;;;9.26;96.23;95633.91;4998857;28;19913;-48
2023/05/25 05:02:12;;;;;;;;;;;14.00;60.30;;;9.32;94.60;95636.63;4999925;28;20253;-49
2023/05/25 05:04:40;;;;;;;;;;;14.10;60.30;;;9.38;96.85;95632.94;4996813;28;19913;-49
2023/05/25 05:07:06;;;;;;;;;;;14.10;60.10;;;9.38;94.84;95641.72;5004520;28;20425;-49
2023/05/25 05:09:32;;;;;;;;;;;14.20;60.10;;;9.33;93.77;95640.88;5007105;28;20419;-50
2023/05/25 05:11:58;;;;;;;;;;;14.20;60.00;;;9.27;93.15;95650.66;4996293;28;19996;-48
2023/05/25 05:14:24;;;;;;;;;;;14.20;59.90;;;9.46;94.52;95651.06;5005465;28;19909;-49
2023/05/25 05:16:50;;;;;;;;;;;14.30;59.90;;;9.49;93.84;95647.88;5006196;28;19909;-49
2023/05/25 05:19:15;;;;;;;;;;;14.40;59.80;;;9.52;93.10;95647.38;5012114;28;19944;-49
2023/05/25 05:21:41;;;;;;;;;;;14.40;59.80;;;9.53;92.83;95653.50;5011128;28;20418;-49
2023/05/25 05:24:07;;;;;;;;;;;14.50;59.80;;;9.60;93.59;95660.22;4998614;28;19956;-53
2023/05/25 05:26:33;;;;;;;;;;;14.50;59.70;;;9.67;92.27;95657.31;4999423;28;20012;-49
2023/05/25 05:28:58;;;;;;;;;;;14.60;59.60;;;9.72;91.78;95668.81;4999220;28;20303;-49
2023/05/25 05:31:26;;;;;;;;;;;14.60;59.50;;;9.74;94.62;95671.19;5011748;28;20368;-49
2023/05/25 05:33:52;;;;;;;;;;;14.70;59.50;;;9.79;90.93;95665.91;4998879;28;19913;-53
2023/05/25 05:36:18;;;;;;;;;;;14.80;59.40;;;9.83;91.53;95667.00;4998927;28;19953;-49
2023/05/25 05:38:45;;;;;;;;;;;14.80;59.30;;;9.78;90.90;95660.84;5008224;28;19945;-49
2023/05/25 05:41:13;;;;;;;;;;;14.90;59.30;;;9.78;90.56;95653.69;5003580;28;19917;-51
2023/05/25 05:43:42;;;;;;;;;;;15.00;59.20;;;9.79;90.19;95659.78;4992035;28;19920;-50
2023/05/25 05:46:11;;;;;;;;;;;15.00;59.00;;;9.76;90.30;95665.63;4994889;28;19916;-52
2023/05/25 05:48:37;;;;;;;;;;;15.20;59.00;;;9.96;89.75;95657.75;5004414;28;19909;-50
2023/05/25 05:51:06;;;;;;;;;;;15.20;58.80;;;10.15;89.30;95672.25;4991165;28;19924;-53
2023/05/25 05:53:34;;;;;;;;;;;15.30;58.80;;;10.30;88.44;95666.19;4991919;28;19909;-55
2023/05/25 05:56:03;;;;;;;;;;;15.50;58.80;;;10.40;87.45;95678.72;5011015;28;20359;-48
2023/05/25 05:58:31;;;;;;;;;;;15.60;58.70;;;10.46;87.52;95675.03;5014492;28;19909;-52
2023/05/25 06:00:58;;;;;;;;;;;15.70;59.10;;;10.46;87.10;95671.56;5014758;28;19917;-51
2023/05/25 06:03:26;;;;;;;;;;;15.80;58.40;;;10.45;88.01;95667.31;5014312;28;19920;-50
2023/05/25 06:05:52;;;;;;;;;;;15.80;58.20;;;10.29;85.55;95677.91;4999492;28;20264;-50
2023/05/25 06:08:18;;;;;;;;;;;15.90;58.10;;;10.38;87.17;95675.56;5004773;28;19915;-53
2023/05/25 06:10:44;;;;;;;;;;;16.00;58.00;;;10.46;88.03;95677.69;5009808;28;20291;-51
2023/05/25 06:13:10;;;;;;;;;;;16.00;57.90;;;10.53;88.15;95680.09;5004704;28;20272;-54
2023/05/25 06:15:36;;;;;;;;;;;16.00;57.80;;;10.53;86.54;95680.09;5011500;28;19919;-51
2023/05/25 06:18:02;;;;;;;;;;;16.10;57.80;;;10.51;87.31;95680.38;5004770;28;20006;-53
2023/05/25 06:20:28;;;;;;;;;;;16.10;57.70;;;10.42;88.02;95681.94;5015087;28;19991;-51
2023/05/25 06:22:54;;;;;;;;;;;16.10;57.60;;;10.48;86.61;95683.56;5014118;28;20000;-53
2023/05/25 06:25:26;;;;;;;;;;;16.10;57.60;;;10.67;88.15;95688.44;5014935;28;19917;-47
2023/05/25 06:27:52;;;;;;;;;;;16.20;57.60;;;10.70;87.77;95690.56;5023684;28;20273;-51
2023/05/25 06:30:18;;;;;;;;;;;16.30;58.20;;;10.84;87.45;95692.47;5011867;28;19920;-49
2023/05/25 06:32:44;;;;;;;;;;;16.30;57.50;;;10.80;86.50;95694.06;5014676;28;19922;-54
2023/05/25 06:35:16;;;;;;;;;;;16.40;57.40;;;10.85;86.59;95695.94;5013684;28;20005;-53
2023/05/25 06:37:41;;;;;;;;;;;16.50;57.40;;;10.91;87.49;95696.75;5015075;28;20238;-50
2023/05/25 06:40:09;;;;;;;;;;;16.50;57.20;;;10.93;86.82;95697.28;5008681;28;19916;-48
2023/05/25 06:42:35;;;;;;;;;;;16.60;57.20;;;10.97;85.22;95698.34;5012218;28;20008;-52
2023/05/25 06:45:00;;;;;;;;;;;16.70;57.10;;;10.64;86.47;95695.06;4996770;28;20012;-53
2023/05/25 06:47:26;;;;;;;;;;;16.70;57.00;;;10.95;87.07;95697.81;5003265;28;20394;-52
2023/05/25 06:49:52;;;;;;;;;;;16.80;56.90;;;11.10;85.20;95695.19;5008041;28;19917;-54
2023/05/25 06:52:17;;;;;;;;;;;17.00;56.90;;;11.30;84.92;95694.41;5004577;28;19909;-51
2023/05/25 06:54:43;;;;;;;;;;;17.10;56.80;;;11.37;84.83;95708.25;5014232;28;19956;-53
2023/05/25 06:57:09;;;;;;;;;;;17.30;56.60;;;11.53;83.32;95706.41;5013096;28;20268;-48
2023/05/25 06:59:35;;;;;;;;;;;17.40;56.60;;;11.68;83.72;95708.25;5012555;28;19959;-54
2023/05/25 07:02:00;;;;;;;;;;;17.60;56.40;;;11.72;84.31;95715.47;4994461;28;19909;-50
2023/05/25 07:04:27;;;;;;;;;;;17.80;56.40;;;11.92;83.42;95724.56;5006684;28;19956;-47
2023/05/25 07:06:53;;;;;;;;;;;17.90;56.20;;;11.77;82.75;95720.78;5003912;28;20000;-53
2023/05/25 07:09:18;;;;;;;;;;;18.00;56.00;;;12.03;80.98;95724.28;5013370;28;20336;-52
2023/05/25 07:11:45;;;;;;;;;;;18.20;55.90;;;11.87;81.97;95720.00;5003903;28;19909;-53
2023/05/25 07:14:11;;;;;;;;;;;18.20;55.70;;;12.09;80.98;95719.72;5010237;28;19923;-54
2023/05/25 07:16:36;;;;;;;;;;;18.30;55.60;;;12.33;80.75;95727.13;5010213;28;19909;-52
2023/05/25 07:19:02;;;;;;;;;;;18.40;55.60;;;12.15;79.73;95729.31;5029034;28;20011;-49
2023/05/25 07:21:35;;;;;;;;;;;18.50;55.50;;;12.02;81.92;95729.88;5012721;28;19919;-53
2023/05/25 07:24:02;;;;;;;;;;;18.60;55.30;;;12.16;81.41;95725.59;5000205;28;20384;-50
2023/05/25 07:26:29;;;;;;;;;;;18.60;55.20;;;12.13;80.88;95726.13;5013575;28;19948;-48
2023/05/25 07:28:54;;;;;;;;;;;18.70;55.10;;;12.24;82.15;95722.34;5002419;28;20003;-52
2023/05/25 07:31:21;;;;;;;;;;;18.60;55.00;;;12.12;80.63;95723.72;5013800;28;20463;-54
2023/05/25 07:33:47;;;;;;;;;;;18.70;54.90;;;12.25;81.77;95739.16;5013193;28;20295;-51
2023/05/25 07:36:13;;;;;;;;;;;18.70;54.80;;;12.39;80.91;95734.06;5013460;28;19935;-49
2023/05/25 07:38:38;;;;;;;;;;;18.80;54.80;;;12.33;80.71;95743.97;5014105;28;19959;-54
2023/05/25 07:41:04;;;;;;;;;;;18.90;54.80;;;12.66;79.66;95741.72;5006899;28;19921;-52
2023/05/25 07:43:30;;;;;;;;;;;19.00;54.70;;;12.61;80.05;95747.09;5013577;28;19917;-50
2023/05/25 07:45:56;;;;;;;;;;;19.10;54.70;;;12.87;80.03;95743.22;5012251;28;19917;-52
2023/05/25 07:48:22;;;;;;;;;;;19.20;54.60;;;12.96;77.69;95757.63;5023723;28;19947;-55
2023/05/25 07:50:47;;;;;;;;;;;19.40;54.50;;;12.80;79.42;95744.59;5005264;28;19959;-49
2023/05/25 07:53:13;;;;;;;;;;;19.50;54.40;;;12.56;78.83;95755.13;5012361;28;19913;-49
2023/05/25 07:55:39;;;;;;;;;;;19.50;54.20;;;12.58;80.31;95758.31;5013257;28;19909;-53
2023/05/25 07:58:06;;;;;;;;;;;19.50;54.00;;;12.81;79.13;95748.88;5007176;28;19971;-50
2023/05/25 08:00:32;;;;;;;;;;;19.60;54.00;;;12.49;78.33;95756.19;5005188;28;19908;-55
2023/05/25 08:02:58;;;;;;;;;;;19.60;53.80;;;12.82;79.40;95750.50;5013080;28;19909;-54
2023/05/25 08:05:24;;;;;;;;;;;19.70;53.70;;;13.11;79.87;95754.06;5000129;28;19920;-47
2023/05/25 08:07:49;;;;;;;;;;;19.90;53.70;;;13.39;76.98;95754.47;5011969;28;19916;-53
2023/05/25 08:10:15;;;;;;;;;;;20.10;53.60;;;13.49;76.88;95750.94;5012424;28;20355;-50
2023/05/25 08:12:41;;;;;;;;;;;20.40;53.40;;;13.79;75.36;95750.69;5012607;28;20336;-47
2023/05/25 08:15:07;;;;;;;;;;;20.60;53.10;;;13.77;74.85;95757.41;5012081;28;19935;-50
2023/05/25 08:17:32;;;;;;;;;;;20.80;52.90;;;13.90;75.92;95746.06;5014429;28;19916;-47
2023/05/25 08:19:58;;;;;;;;;;;20.90;52.70;;;14.15;75.16;95760.28;5011888;28;19909;-50
2023/05/25 08:22:24;;;;;;;;;;;21.00;53.30;;;14.15;74.98;95763.75;5011437;28;19916;-47
2023/05/25 08:24:50;;;;;;;;;;;21.20;52.50;;;13.85;75.21;95754.94;5012944;28;19913;-47
2023/05/25 08:27:17;;;;;;;;;;;21.30;52.20;;;14.02;75.23;95759.06;5010905;28;19916;-49
2023/05/25 08:29:42;;;;;;;;;;;21.40;52.10;;;14.43;74.32;95764.03;5012587;28;19962;-47
2023/05/25 08:32:08;;;;;;;;;;;21.60;52.00;;;14.67;73.95;95753.34;5012524;28;20461;-47
2023/05/25 08:34:34;;;;;;;;;;;21.80;51.80;;;14.52;72.61;95757.78;5011794;28;19916;-47
2023/05/25 08:36:59;;;;;;;;;;;22.00;51.70;;;14.23;74.06;95754.34;4998867;28;19909;-47
2023/05/25 08:39:25;;;;;;;;;;;22.00;51.30;;;14.31;73.80;95767.09;5007599;28;20276;-48
2023/05/25 08:41:52;;;;;;;;;;;22.10;51.10;;;14.42;73.35;95767.81;5009791;28;19920;-48
2023/05/25 08:44:18;;;;;;;;;;;22.10;50.90;;;14.75;72.57;95779.53;5015871;23;19929;-52
2023/05/25 08:46:49;;;;;;;;;;;22.10;51.00;;;14.94;71.22;95783.03;5010295;28;19923;-46
2023/05/25 08:49:16;;;;;;;;;;;22.10;50.90;;;14.91;72.00;95786.28;5012539;28;19909;-48
2023/05/25 08:51:54;;;;;;;;;;;22.10;50.80;;;14.73;72.82;95798.59;5006141;28;19913;-53
2023/05/25 08:54:29;;;;;;;;;;;22.10;50.80;;;14.88;71.82;95802.97;5007055;28;19913;-50
2023/05/25 08:57:12;;;;;;;;;;;22.00;50.80;;;14.89;70.47;95803.78;4993320;28;20016;-48
2023/05/25 09:00:14;;;;;;;;;;;22.00;50.90;;;14.87;71.90;95806.72;4980923;28;19909;-50
2023/05/25 09:02:59;;;;;;;;;;;22.00;50.90;;;14.78;72.32;95806.56;5005976;28;20008;-49
2023/05/25 09:05:26;;;;;;;;;;;21.90;50.80;;;14.76;73.57;95807.91;4992237;28;19913;-46
2023/05/25 09:07:53;;;;;;;;;;;21.80;50.70;;;14.54;72.98;95811.94;5008438;28;19917;-49
2023/05/25 09:10:20;;;;;;;;;;;21.80;50.70;;;14.71;72.01;95811.47;4985296;28;19913;-48
2023/05/25 09:12:48;;;;;;;;;;;21.80;50.60;;;14.84;72.38;95815.34;4980376;28;20283;-46
2023/05/25 09:15:14;;;;;;;;;;;21.90;50.60;;;15.06;73.53;95822.88;5005437;28;19909;-49
2023/05/25 09:17:40;;;;;;;;;;;22.00;50.50;;;15.25;71.25;95812.16;4980555;28;20331;-48
2023/05/25 09:20:09;;;;;;;;;;;22.20;50.50;;;15.12;71.90;95811.00;4993345;28;19924;-46
2023/05/25 09:22:35;;;;;;;;;;;22.30;50.30;;;15.19;71.90;95821.38;4988830;28;19948;-47
2023/05/25 09:25:09;;;;;;;;;;;22.40;50.10;;;15.41;70.48;95818.94;4992683;28;20368;-50
2023/05/25 09:27:36;;;;;;;;;;;22.70;50.10;;;15.85;70.15;95823.16;4988077;28;19916;-47
2023/05/25 09:30:04;;;;;;;;;;;22.90;50.00;;;15.75;67.47;95825.22;4989044;28;20326;-48
2023/05/25 09:32:30;;;;;;;;;;;23.10;49.90;;;15.76;69.98;95837.53;4992850;28;19909;-48
2023/05/25 09:35:10;;;;;;;;;;;23.10;49.60;;;15.98;70.73;95843.13;4980306;28;19932;-49
2023/05/25 09:37:37;;;;;;;;;;;23.30;49.50;;;16.09;67.83;95843.78;4992552;28;20358;-48
2023/05/25 09:40:05;;;;;;;;;;;23.50;49.40;;;15.88;68.97;95835.22;4989586;28;20003;-47
2023/05/25 09:42:35;;;;;;;;;;;23.60;49.10;;;16.25;68.67;95841.63;5001970;28;19913;-48
2023/05/25 09:45:03;;;;;;;;;;;23.80;48.90;;;16.27;66.80;95840.25;5004881;28;19921;-48
2023/05/25 09:47:29;;;;;;;;;;;23.90;48.70;;;16.46;67.41;95842.91;4995186;28;19910;-49
2023/05/25 09:49:56;;;;;;;;;;;23.90;48.40;;;16.25;67.03;95847.81;4991865;28;20358;-48
2023/05/25 09:52:23;;;;;;;;;;;24.00;48.40;;;16.17;70.07;95849.28;4990960;28;19955;-47
2023/05/25 09:54:50;;;;;;;;;;;23.90;48.20;;;16.43;66.93;95841.59;4991048;28;19910;-48
2023/05/25 09:57:19;;;;;;;;;;;24.00;48.30;;;16.03;67.48;95853.78;4990894;28;19931;-47
2023/05/25 09:59:46;;;;;;;;;;;24.00;48.00;;;16.08;68.83;95863.69;4991724;28;19909;-48
2023/05/25 10:02:13;;;;;;;;;;;23.90;47.80;;;16.17;67.29;95857.34;4991167;28;20403;-51
2023/05/25 10:04:40;;;;;;;;;;;23.90;47.60;;;16.46;67.28;95858.22;4992590;28;19917;-49
2023/05/25 10:07:07;;;;;;;;;;;24.00;47.60;;;16.49;66.42;95854.94;5006625;28;20323;-47
2023/05/25 10:09:40;;;;;;;;;;;24.00;47.50;;;16.33;66.88;95862.47;4989327;28;20458;-47
2023/05/25 10:12:07;;;;;;;;;;;24.00;47.50;;;16.22;69.42;95859.13;4990525;28;19909;-48
2023/05/25 10:14:37;;;;;;;;;;;24.00;47.50;;;16.55;69.50;95868.00;4991148;28;19917;-50
2023/05/25 10:17:05;;;;;;;;;;;24.00;47.50;;;16.74;66.35;95869.84;4985979;28;19916;-48
2023/05/25 10:19:52;;;;;;;;;;;24.00;47.50;;;16.94;66.16;95863.31;4991622;28;19955;-47
2023/05/25 10:22:31;;;;;;;;;;;24.10;47.40;;;16.98;66.82;95869.69;4996120;28;19910;-51
2023/05/25 10:25:03;;;;;;;;;;;24.30;47.20;;;17.04;64.88;95869.28;4982382;28;19913;-49
2023/05/25 10:27:43;;;;;;;;;;;24.50;47.00;;;17.19;65.43;95867.41;4987881;28;19917;-48
2023/05/25 10:30:10;;;;;;;;;;;24.70;46.80;;;17.09;64.62;95861.13;4982573;28;19956;-47
2023/05/25 10:32:41;;;;;;;;;;;24.90;46.50;;;17.31;64.57;95862.31;5007295;28;19917;-48
2023/05/25 10:35:09;;;;;;;;;;;25.20;46.20;;;17.85;64.17;95865.25;4989749;28;19909;-48
2023/05/25 10:37:36;;;;;;;;;;;25.60;45.90;;;18.19;62.41;95862.03;4990564;28;20264;-47
2023/05/25 10:40:05;;;;;;;;;;;26.30;45.70;;;18.20;60.51;95869.81;4990763;28;19913;-48
2023/05/25 10:42:33;;;;;;;;;;;26.70;45.20;;;18.07;62.71;95867.97;4980429;28;19913;-49
2023/05/25 10:45:00;;;;;;;;;;;26.90;45.00;;;18.31;61.15;95867.69;4995235;28;19963;-47
2023/05/25 10:47:26;;;;;;;;;;;27.00;44.90;;;18.59;60.78;95873.75;5009373;28;19948;-48
2023/05/25 10:49:57;;;;;;;;;;;27.10;45.30;;;18.82;60.59;95884.53;5010295;28;19909;-49
2023/05/25 10:52:29;;;;;;;;;;;27.20;44.50;;;18.15;61.86;95886.13;4987488;28;19909;-47
2023/05/25 10:55:00;;;;;;;;;;;27.20;44.40;;;18.36;60.46;95886.41;4995129;28;20319;-48
2023/05/25 10:57:27;;;;;;;;;;;27.10;44.30;;;18.46;60.05;95894.28;4994094;28;19917;-49
2023/05/25 11:00:05;;;;;;;;;;;26.90;44.20;;;18.72;58.96;95896.34;4994522;28;19909;-47
2023/05/25 11:02:49;;;;;;;;;;;26.90;44.20;;;18.76;59.17;95897.34;5008904;28;20360;-49
2023/05/25 11:05:30;;;;;;;;;;;26.90;44.20;;;18.69;59.57;95889.66;4991775;28;20265;-49
2023/05/25 11:07:58;;;;;;;;;;;26.80;44.00;;;18.61;59.85;95895.00;4994565;28;19917;-49
2023/05/25 11:10:48;;;;;;;;;;;26.90;43.70;;;18.61;60.71;95892.28;4993413;28;20287;-47
2023/05/25 11:13:35;;;;;;;;;;;27.00;43.60;;;18.74;59.57;95899.56;4989454;28;19909;-50
2023/05/25 11:16:34;;;;;;;;;;;26.90;43.40;;;18.90;59.69;95889.19;4992683;28;19910;-47
2023/05/25 11:19:01;;;;;;;;;;;26.90;43.60;;;19.07;58.69;95893.84;4994460;28;19944;-50
2023/05/25 11:21:29;;;;;;;;;;;27.00;43.60;;;19.21;59.11;95885.63;4990706;28;19948;-49
2023/05/25 11:24:05;;;;;;;;;;;27.30;43.60;;;19.08;59.11;95888.13;4984464;28;19921;-47